Time;durP1;ratioP1;P1;durP2;ratioP2;P2;SDS_P1;SDS_P2;PMS_P1;PMS_P2;Temp;Humidity;BMP_temperature;BMP_pressure;BME280_temperature;BME280_humidity;BME280_pressure;Samples;Min_cycle;Max_cycle;Signal;HPM_P1;HPM_P2
2023/08/18 00:01:25;;;;;;;17.17;7.60;;;16.50;99.90;;;;;;5055832;28;20049;-74
2023/08/18 00:03:51;;;;;;;23.90;8.00;;;16.50;99.90;;;;;;5055239;28;20053;-74
2023/08/18 00:06:17;;;;;;;19.63;8.80;;;16.40;99.90;;;;;;5038552;28;20056;-74
2023/08/18 00:08:42;;;;;;;23.47;8.97;;;16.40;99.90;;;;;;5055010;28;20068;-74
2023/08/18 00:11:08;;;;;;;20.00;8.13;;;16.50;99.90;;;;;;5055531;28;20063;-74
2023/08/18 00:13:34;;;;;;;22.45;8.70;;;16.50;99.90;;;;;;5055828;28;20044;-74
2023/08/18 00:16:00;;;;;;;22.73;8.57;;;16.50;99.90;;;;;;5055547;28;20045;-74
2023/08/18 00:18:27;;;;;;;20.40;8.60;;;16.40;99.90;;;;;;5056615;28;20053;-74
2023/08/18 00:20:53;;;;;;;22.48;8.77;;;16.40;99.90;;;;;;5055691;28;20695;-74
2023/08/18 00:23:19;;;;;;;26.27;9.65;;;16.40;99.90;;;;;;5055662;28;20084;-75
2023/08/18 00:25:45;;;;;;;18.50;8.75;;;16.30;99.90;;;;;;5055320;28;20061;-75
2023/08/18 00:28:11;;;;;;;21.37;8.77;;;16.30;99.90;;;;;;5055564;28;20095;-75
2023/08/18 00:30:36;;;;;;;23.40;8.57;;;16.30;99.90;;;;;;5055623;28;20049;-74
2023/08/18 00:33:02;;;;;;;18.60;7.72;;;16.30;99.90;;;;;;5038181;28;20060;-74
2023/08/18 00:35:28;;;;;;;18.57;7.93;;;16.30;99.90;;;;;;5038459;28;20037;-75
2023/08/18 00:37:54;;;;;;;22.40;7.97;;;16.20;99.90;;;;;;5054523;28;20045;-73
2023/08/18 00:40:22;;;;;;;16.70;6.45;;;16.20;99.90;;;;;;5054114;28;20374;-74
2023/08/18 00:42:47;;;;;;;19.33;7.28;;;16.20;99.90;;;;;;5053788;28;20542;-74
2023/08/18 00:45:13;;;;;;;16.08;6.45;;;16.30;99.90;;;;;;5054069;28;20124;-75
2023/08/18 00:47:39;;;;;;;21.58;7.50;;;16.30;99.90;;;;;;5055440;28;20468;-75
2023/08/18 00:50:06;;;;;;;21.52;6.60;;;16.30;99.90;;;;;;5054036;28;20132;-74
2023/08/18 00:52:31;;;;;;;15.95;5.90;;;16.30;99.90;;;;;;5055169;28;20127;-74
2023/08/18 00:54:58;;;;;;;17.10;6.80;;;16.30;99.90;;;;;;5055944;28;20126;-74
2023/08/18 00:57:24;;;;;;;;;;;16.30;99.90;;;;;;5054763;28;20048;-76
2023/08/18 00:59:50;;;;;;;18.55;6.22;;;16.30;99.90;;;;;;5088953;28;20007;-75
2023/08/18 01:02:19;;;;;;;19.73;5.93;;;16.30;99.90;;;;;;5054964;28;20132;-75
2023/08/18 01:04:46;;;;;;;16.42;6.00;;;16.30;99.90;;;;;;5054719;28;20310;-75
2023/08/18 01:07:11;;;;;;;16.98;6.18;;;16.30;99.90;;;;;;5056204;28;20040;-76
2023/08/18 01:09:37;;;;;;;15.32;6.15;;;16.20;99.90;;;;;;5056792;28;20059;-74
2023/08/18 01:12:12;;;;;;;17.13;5.90;;;16.20;99.90;;;;;;5056239;28;20048;-74
2023/08/18 01:15:05;;;;;;;20.88;5.88;;;16.30;99.90;;;;;;5057293;28;20057;-76
2023/08/18 01:17:54;;;;;;;16.63;5.50;;;16.30;99.90;;;;;;5058234;28;20047;-76
2023/08/18 01:20:21;;;;;;;20.40;6.60;;;16.30;99.90;;;;;;5059372;28;20049;-75
2023/08/18 01:22:56;;;;;;;23.80;6.80;;;16.20;99.90;;;;;;5053817;28;20461;-76
2023/08/18 01:25:22;;;;;;;20.90;5.97;;;16.10;99.90;;;;;;5054593;28;20047;-76
2023/08/18 01:27:48;;;;;;;18.33;6.28;;;16.20;99.90;;;;;;5053280;28;20127;-74
2023/08/18 01:30:14;;;;;;;19.23;5.97;;;16.20;99.90;;;;;;5054504;28;20479;-75
2023/08/18 01:32:50;;;;;;;17.65;5.38;;;16.20;99.90;;;;;;5053512;28;20045;-73
2023/08/18 01:35:18;;;;;;;18.00;5.68;;;16.20;99.90;;;;;;5055410;28;20045;-75
2023/08/18 01:37:46;;;;;;;22.83;5.78;;;16.20;99.90;;;;;;5056037;28;20055;-74
2023/08/18 01:40:14;;;;;;;19.65;6.70;;;16.20;99.90;;;;;;5055015;28;20516;-76
2023/08/18 01:42:40;;;;;;;16.83;5.85;;;16.20;99.90;;;;;;5054859;28;20124;-75
2023/08/18 01:45:08;;;;;;;20.77;6.13;;;16.20;99.90;;;;;;5054649;28;20128;-75
2023/08/18 01:47:34;;;;;;;15.07;5.50;;;16.20;99.90;;;;;;5054226;28;20044;-75
2023/08/18 01:50:00;;;;;;;24.08;5.40;;;16.30;99.90;;;;;;5054390;28;20052;-76
2023/08/18 01:52:25;;;;;;;18.57;6.50;;;16.30;99.90;;;;;;5053966;28;20041;-74
2023/08/18 01:54:52;;;;;;;23.45;6.63;;;16.20;99.90;;;;;;5054556;28;20051;-74
2023/08/18 01:57:17;;;;;;;19.88;7.47;;;16.20;99.90;;;;;;5054440;28;20052;-75
2023/08/18 01:59:43;;;;;;;20.50;6.10;;;16.20;99.90;;;;;;5053845;28;20512;-75
2023/08/18 02:02:09;;;;;;;18.05;5.68;;;16.20;99.90;;;;;;5036109;28;20056;-75
2023/08/18 02:04:34;;;;;;;16.33;5.57;;;16.20;99.90;;;;;;5054410;28;20045;-74
2023/08/18 02:07:00;;;;;;;17.67;5.73;;;16.20;99.90;;;;;;5053591;28;20052;-76
2023/08/18 02:09:26;;;;;;;17.93;5.17;;;16.20;99.90;;;;;;5054265;28;20148;-73
2023/08/18 02:11:52;;;;;;;18.33;5.85;;;16.20;99.90;;;;;;5054466;28;20056;-74
2023/08/18 02:14:18;;;;;;;15.63;5.30;;;16.30;99.90;;;;;;5053507;28;20443;-74
2023/08/18 02:16:43;;;;;;;18.67;6.17;;;16.20;99.90;;;;;;5052380;28;20095;-75
2023/08/18 02:19:09;;;;;;;20.83;5.70;;;16.20;99.90;;;;;;5053195;28;20400;-75
2023/08/18 02:21:35;;;;;;;15.18;5.25;;;16.20;99.90;;;;;;5052236;28;20048;-75
2023/08/18 02:24:00;;;;;;;20.73;5.67;;;16.20;99.90;;;;;;5052341;28;20045;-74
2023/08/18 02:26:26;;;;;;;20.20;5.27;;;16.20;99.90;;;;;;5053405;28;20048;-74
2023/08/18 02:28:52;;;;;;;16.15;5.45;;;16.20;99.90;;;;;;5035488;28;20508;-74
2023/08/18 02:31:18;;;;;;;15.27;5.03;;;16.20;99.90;;;;;;5053511;28;20166;-78
2023/08/18 02:33:43;;;;;;;14.23;5.53;;;16.30;99.90;;;;;;5054493;28;20052;-77
2023/08/18 02:36:09;;;;;;;19.50;6.07;;;16.20;99.90;;;;;;5056659;28;20052;-77
2023/08/18 02:38:35;;;;;;;14.30;5.22;;;16.30;99.90;;;;;;5055990;28;20045;-78
2023/08/18 02:41:01;;;;;;;18.20;5.93;;;16.30;99.90;;;;;;5056343;28;20049;-77
2023/08/18 02:43:27;;;;;;;15.43;5.37;;;16.30;99.90;;;;;;5057115;28;20056;-77
2023/08/18 02:45:57;;;;;;;17.30;5.80;;;16.30;99.90;;;;;;5056717;28;20051;-76
2023/08/18 02:48:25;;;;;;;21.45;6.50;;;16.30;99.90;;;;;;5059087;28;20055;-76
2023/08/18 02:51:00;;;;;;;14.23;5.20;;;16.30;99.90;;;;;;5063157;28;20049;-77
2023/08/18 02:53:25;;;;;;;16.27;5.53;;;16.30;99.90;;;;;;5063627;28;20045;-76
2023/08/18 02:55:54;;;;;;;18.45;5.72;;;16.30;99.90;;;;;;5067601;28;20067;-76
2023/08/18 02:58:20;;;;;;;16.67;5.40;;;16.30;99.90;;;;;;5060318;28;20123;-75
2023/08/18 03:00:45;;;;;;;11.68;5.43;;;16.30;99.90;;;;;;5060149;28;20061;-76
2023/08/18 03:03:11;;;;;;;13.73;5.65;;;16.20;99.90;;;;;;5060530;28;20049;-80
2023/08/18 03:05:37;;;;;;;15.30;5.47;;;16.30;99.90;;;;;;5058941;28;20136;-78
2023/08/18 03:08:03;;;;;;;18.13;5.95;;;16.20;99.90;;;;;;5060082;28;20044;-76
2023/08/18 03:10:29;;;;;;;16.50;6.57;;;16.20;99.90;;;;;;5058919;28;20049;-79
2023/08/18 03:12:55;;;;;;;23.02;6.28;;;16.20;99.90;;;;;;5059997;28;20333;-77
2023/08/18 03:15:21;;;;;;;15.75;6.10;;;16.20;99.90;;;;;;5059082;28;20049;-77
2023/08/18 03:17:46;;;;;;;15.93;6.53;;;16.20;99.90;;;;;;5060056;28;20057;-77
2023/08/18 03:20:12;;;;;;;17.98;7.07;;;16.20;99.90;;;;;;5060093;28;20049;-76
2023/08/18 03:22:38;;;;;;;16.97;6.40;;;16.20;99.90;;;;;;5058890;28;20525;-76
2023/08/18 03:25:04;;;;;;;20.33;6.90;;;16.20;99.90;;;;;;5059217;28;20124;-75
2023/08/18 03:27:30;;;;;;;12.43;6.00;;;16.10;99.90;;;;;;5059860;28;20052;-78
2023/08/18 03:29:55;;;;;;;14.93;6.47;;;16.10;99.90;;;;;;5060376;28;20047;-77
2023/08/18 03:32:24;;;;;;;16.98;7.18;;;16.20;99.90;;;;;;5059932;28;20049;-77
2023/08/18 03:34:53;;;;;;;21.00;7.60;;;16.20;99.90;;;;;;5059815;28;20496;-77
2023/08/18 03:37:18;;;;;;;22.30;7.80;;;16.20;99.90;;;;;;5059601;28;20045;-77
2023/08/18 03:39:44;;;;;;;21.55;7.80;;;16.10;99.90;;;;;;5075253;28;20041;-76
2023/08/18 03:42:10;;;;;;;19.80;7.03;;;16.10;99.90;;;;;;5058722;28;20049;-77
2023/08/18 03:44:36;;;;;;;18.30;7.93;;;16.10;99.90;;;;;;5059873;28;20796;-77
2023/08/18 03:47:01;;;;;;;17.90;7.65;;;16.10;99.90;;;;;;5058997;28;20052;-77
2023/08/18 03:49:27;;;;;;;21.27;7.57;;;16.00;99.90;;;;;;5060190;28;20135;-77
2023/08/18 03:51:53;;;;;;;23.05;7.70;;;16.00;99.90;;;;;;5059710;28;20044;-76
2023/08/18 03:54:20;;;;;;;28.05;8.73;;;16.10;99.90;;;;;;5058182;28;20049;-76
2023/08/18 03:56:45;;;;;;;24.20;8.20;;;16.00;99.90;;;;;;5059260;28;20126;-77
2023/08/18 03:59:11;;;;;;;26.02;7.88;;;16.00;99.90;;;;;;5058991;28;20056;-76
2023/08/18 04:01:37;;;;;;;23.52;7.45;;;16.00;99.90;;;;;;5055890;28;20100;-76
2023/08/18 04:04:04;;;;;;;21.55;7.72;;;16.00;99.90;;;;;;5055450;28;20107;-76
2023/08/18 04:06:30;;;;;;;20.48;7.20;;;16.00;99.90;;;;;;5056973;28;20052;-76
2023/08/18 04:09:06;;;;;;;22.65;8.80;;;16.00;99.90;;;;;;5059513;28;20405;-76
2023/08/18 04:11:35;;;;;;;23.00;7.82;;;16.00;99.90;;;;;;5066046;28;20052;-76
2023/08/18 04:14:02;;;;;;;28.60;8.73;;;16.00;99.90;;;;;;5059036;28;20041;-76
2023/08/18 04:16:31;;;;;;;23.77;8.50;;;16.00;99.90;;;;;;5038774;28;20167;-75
2023/08/18 04:18:57;;;;;;;22.13;7.88;;;16.00;99.90;;;;;;5056277;28;20049;-76
2023/08/18 04:21:23;;;;;;;23.30;8.53;;;16.00;99.90;;;;;;5056174;28;20064;-76
2023/08/18 04:23:48;;;;;;;33.40;9.35;;;16.00;99.90;;;;;;5056229;28;20280;-77
2023/08/18 04:26:14;;;;;;;24.85;8.50;;;16.00;99.90;;;;;;5056460;28;20449;-76
2023/08/18 04:28:40;;;;;;;31.00;8.88;;;16.00;99.90;;;;;;5056071;28;20049;-76
2023/08/18 04:31:06;;;;;;;25.40;8.73;;;16.00;99.90;;;;;;5056027;28;20049;-77
2023/08/18 04:33:31;;;;;;;21.35;7.88;;;16.00;99.90;;;;;;5056805;28;20048;-78
2023/08/18 04:35:58;;;;;;;30.02;9.13;;;15.90;99.90;;;;;;5055686;28;20478;-77
2023/08/18 04:38:24;;;;;;;24.25;8.50;;;15.90;99.90;;;;;;5055795;28;20045;-77
2023/08/18 04:41:02;;;;;;;28.80;9.27;;;15.90;99.90;;;;;;5054790;28;20073;-79
2023/08/18 04:43:29;;;;;;;26.40;8.52;;;16.00;99.90;;;;;;5055552;28;20041;-78
2023/08/18 04:45:56;;;;;;;31.80;10.13;;;16.00;99.90;;;;;;5056180;28;20059;-77
2023/08/18 04:48:23;;;;;;;23.75;8.65;;;16.00;99.90;;;;;;5055507;28;20092;-77
2023/08/18 04:50:49;;;;;;;23.67;9.15;;;15.90;99.90;;;;;;5055438;28;20120;-75
2023/08/18 04:53:15;;;;;;;22.45;9.27;;;16.00;99.90;;;;;;5056142;28;20060;-77
2023/08/18 04:55:44;;;;;;;24.83;8.25;;;16.00;99.90;;;;;;5055044;28;20493;-76
2023/08/18 04:58:13;;;;;;;25.60;8.15;;;16.00;99.90;;;;;;5056035;28;20346;-79
2023/08/18 05:00:42;;;;;;;26.08;8.68;;;16.00;99.90;;;;;;5055142;28;20104;-76
2023/08/18 05:03:08;;;;;;;29.77;8.63;;;16.00;99.90;;;;;;5055474;28;20049;-76
2023/08/18 05:05:39;;;;;;;25.55;9.35;;;16.10;99.90;;;;;;5055339;28;20049;-74
2023/08/18 05:08:05;;;;;;;22.10;8.20;;;16.10;99.90;;;;;;5054267;28;20128;-77
2023/08/18 05:10:31;;;;;;;22.15;8.35;;;16.10;99.90;;;;;;5054903;28;20052;-76
2023/08/18 05:12:56;;;;;;;20.08;8.25;;;16.20;99.90;;;;;;5037815;28;20049;-76
2023/08/18 05:15:23;;;;;;;25.23;8.20;;;16.20;99.90;;;;;;5054472;28;20045;-76
2023/08/18 05:17:51;;;;;;;26.33;8.97;;;16.20;99.90;;;;;;5056565;28;20072;-76
2023/08/18 05:20:17;;;;;;;19.95;8.38;;;16.20;99.90;;;;;;5056168;28;20047;-77
2023/08/18 05:22:43;;;;;;;25.55;8.50;;;16.30;99.90;;;;;;5055755;28;20124;-75
2023/08/18 05:25:08;;;;;;;24.38;9.15;;;16.30;99.90;;;;;;5056634;28;20037;-77
2023/08/18 05:27:35;;;;;;;23.40;8.27;;;16.30;99.90;;;;;;5038626;28;20116;-75
2023/08/18 05:30:00;;;;;;;21.63;8.15;;;16.30;99.90;;;;;;5058335;28;20101;-76
2023/08/18 05:32:26;;;;;;;22.97;8.47;;;16.40;99.90;;;;;;5058716;28;20063;-76
2023/08/18 05:34:55;;;;;;;20.50;8.50;;;16.40;99.90;;;;;;5058044;28;20107;-77
2023/08/18 05:37:22;;;;;;;24.98;8.65;;;16.40;99.90;;;;;;5055748;28;20481;-76
2023/08/18 05:39:47;;;;;;;21.52;8.27;;;16.40;99.90;;;;;;5057442;28;20053;-76
2023/08/18 05:42:13;;;;;;;22.95;8.63;;;16.50;99.90;;;;;;5057320;28;20048;-78
2023/08/18 05:44:41;;;;;;;23.07;8.83;;;16.50;99.90;;;;;;5056340;28;20076;-75
2023/08/18 05:47:06;;;;;;;24.55;8.25;;;16.50;99.90;;;;;;5055167;28;20045;-76
2023/08/18 05:49:32;;;;;;;24.05;8.55;;;16.60;99.90;;;;;;5054252;28;20506;-77
2023/08/18 05:51:58;;;;;;;21.63;8.45;;;16.70;99.90;;;;;;5053733;28;20358;-79
2023/08/18 05:54:24;;;;;;;24.30;8.23;;;16.70;99.90;;;;;;5053579;28;20476;-78
2023/08/18 05:56:50;;;;;;;25.63;9.10;;;16.70;99.90;;;;;;5053251;28;20045;-79
2023/08/18 05:59:15;;;;;;;27.80;9.17;;;16.70;99.90;;;;;;5054441;28;20053;-77
2023/08/18 06:01:41;;;;;;;20.50;8.10;;;16.70;99.90;;;;;;5052636;28;20418;-76
2023/08/18 06:04:07;;;;;;;27.08;10.35;;;16.60;99.90;;;;;;5054086;28;20350;-79
2023/08/18 06:06:34;;;;;;;26.30;9.65;;;16.60;99.90;;;;;;5036358;28;20041;-76
2023/08/18 06:09:01;;;;;;;24.15;9.05;;;16.60;99.90;;;;;;5052582;28;20045;-77
2023/08/18 06:11:27;;;;;;;25.80;9.15;;;16.60;99.90;;;;;;5054103;28;20405;-78
2023/08/18 06:13:53;;;;;;;23.95;8.85;;;16.60;99.90;;;;;;5053957;28;20049;-77
2023/08/18 06:16:18;;;;;;;22.48;9.07;;;16.60;99.90;;;;;;5037046;28;20074;-78
2023/08/18 06:18:44;;;;;;;24.27;9.07;;;16.70;99.90;;;;;;5053037;28;20041;-79
2023/08/18 06:21:10;;;;;;;23.48;9.20;;;16.70;99.90;;;;;;5052775;28;20086;-79
2023/08/18 06:23:36;;;;;;;31.00;9.55;;;16.80;99.90;;;;;;5061822;28;20044;-75
2023/08/18 06:26:02;;;;;;;26.13;9.57;;;16.90;99.90;;;;;;5061621;28;20048;-75
2023/08/18 06:28:29;;;;;;;27.63;9.20;;;16.80;99.90;;;;;;5054395;28;20507;-76
2023/08/18 06:31:06;;;;;;;25.30;9.93;;;16.90;99.90;;;;;;5052545;28;20045;-77
2023/08/18 06:33:33;;;;;;;25.90;9.55;;;17.00;99.90;;;;;;5052502;28;20057;-77
2023/08/18 06:35:59;;;;;;;25.70;9.43;;;17.00;99.90;;;;;;5053101;28;20502;-78
2023/08/18 06:38:25;;;;;;;28.73;10.35;;;17.00;99.90;;;;;;5052511;28;20135;-77
2023/08/18 06:40:50;;;;;;;28.23;10.37;;;16.90;99.90;;;;;;5052129;28;20084;-77
2023/08/18 06:43:16;;;;;;;28.73;10.33;;;17.00;99.90;;;;;;5053332;28;20041;-79
2023/08/18 06:45:42;;;;;;;29.52;10.88;;;17.10;99.90;;;;;;5052773;28;20045;-77
2023/08/18 06:48:08;;;;;;;30.30;10.57;;;17.10;99.90;;;;;;5053165;28;20060;-77
2023/08/18 06:50:34;;;;;;;26.13;11.18;;;17.10;99.90;;;;;;5036661;28;20053;-77
2023/08/18 06:53:00;;;;;;;30.55;11.20;;;17.20;99.90;;;;;;5086906;28;20045;-78
2023/08/18 06:55:25;;;;;;;39.72;11.38;;;17.10;99.90;;;;;;5052351;28;20384;-77
2023/08/18 06:57:51;;;;;;;30.17;11.43;;;17.20;99.90;;;;;;5053417;28;20113;-76
2023/08/18 07:00:19;;;;;;;33.33;11.07;;;17.20;99.90;;;;;;5052061;28;20048;-77
2023/08/18 07:02:46;;;;;;;36.65;12.60;;;17.30;99.90;;;;;;5053628;28;20053;-77
2023/08/18 07:05:12;;;;;;;32.08;12.35;;;17.30;99.90;;;;;;5034950;28;20545;-77
2023/08/18 07:07:38;;;;;;;36.38;12.40;;;17.40;99.90;;;;;;5068766;28;20048;-78
2023/08/18 07:10:05;;;;;;;35.33;12.05;;;17.50;99.90;;;;;;5053030;28;20045;-78
2023/08/18 07:12:33;;;;;;;34.92;13.30;;;17.50;99.90;;;;;;5053129;28;20052;-78
2023/08/18 07:14:58;;;;;;;39.22;13.90;;;17.50;99.90;;;;;;5053595;28;20060;-78
2023/08/18 07:17:24;;;;;;;45.50;14.37;;;17.60;99.90;;;;;;5035845;28;20053;-76
2023/08/18 07:19:50;;;;;;;43.23;13.90;;;17.60;99.90;;;;;;5052771;28;20087;-76
2023/08/18 07:22:16;;;;;;;35.17;13.23;;;17.60;99.90;;;;;;5053281;28;20477;-76
2023/08/18 07:24:41;;;;;;;40.70;13.07;;;17.70;99.90;;;;;;5053125;28;20048;-75
2023/08/18 07:27:07;;;;;;;39.67;13.35;;;17.70;99.90;;;;;;5051897;28;20136;-76
2023/08/18 07:29:36;;;;;;;39.60;13.40;;;17.90;99.90;;;;;;5086722;28;20412;-75
2023/08/18 07:32:02;;;;;;;40.17;13.85;;;18.00;99.90;;;;;;5035925;28;20044;-76
2023/08/18 07:34:28;;;;;;;35.10;13.80;;;18.00;99.90;;;;;;5053838;28;20056;-76
2023/08/18 07:36:53;;;;;;;39.78;12.80;;;18.10;99.90;;;;;;5057187;28;20413;-77
2023/08/18 07:39:20;;;;;;;38.47;13.00;;;18.20;99.90;;;;;;5057533;28;20075;-76
2023/08/18 07:41:45;;;;;;;30.40;12.77;;;18.30;99.90;;;;;;5056964;28;20037;-76
2023/08/18 07:44:11;;;;;;;36.97;12.37;;;18.40;99.90;;;;;;5055676;28;20044;-77
2023/08/18 07:46:37;;;;;;;43.05;12.52;;;18.40;99.90;;;;;;5056607;28;20053;-76
2023/08/18 07:49:04;;;;;;;31.85;12.43;;;18.50;99.90;;;;;;5056062;28;20461;-80
2023/08/18 07:51:30;;;;;;;37.63;12.40;;;18.60;99.90;;;;;;5088861;28;20131;-78
2023/08/18 07:53:56;;;;;;;35.35;12.73;;;18.60;99.90;;;;;;5089270;28;20080;-76
2023/08/18 07:56:21;;;;;;;34.20;12.80;;;18.60;99.90;;;;;;5039533;28;20138;-77
2023/08/18 07:58:48;;;;;;;37.83;13.90;;;18.40;99.90;;;;;;5056147;28;20045;-76
2023/08/18 08:01:14;;;;;;;36.92;12.13;;;18.40;99.90;;;;;;5055733;28;20053;-77
2023/08/18 08:03:40;;;;;;;30.23;12.37;;;18.50;99.90;;;;;;5056136;28;20102;-77
2023/08/18 08:06:06;;;;;;;36.23;12.60;;;18.50;99.90;;;;;;5038510;28;20048;-75
2023/08/18 08:08:31;;;;;;;35.45;13.45;;;18.50;99.90;;;;;;5056072;28;20088;-77
2023/08/18 08:10:58;;;;;;;34.30;12.77;;;18.50;99.90;;;;;;5056180;28;20073;-76
2023/08/18 08:13:24;;;;;;;39.97;13.02;;;18.40;99.90;;;;;;5056364;28;20049;-77
2023/08/18 08:15:50;;;;;;;34.72;11.95;;;18.60;99.90;;;;;;5056194;28;20087;-75
2023/08/18 08:18:18;;;;;;;33.77;12.23;;;18.70;99.90;;;;;;5054759;28;20060;-76
2023/08/18 08:20:44;;;;;;;38.15;12.77;;;18.70;99.90;;;;;;5056033;28;20060;-76
2023/08/18 08:23:10;;;;;;;39.80;12.55;;;18.80;99.90;;;;;;5055567;28;20045;-77
2023/08/18 08:25:37;;;;;;;33.73;12.90;;;18.90;99.90;;;;;;5055872;28;20059;-76
2023/08/18 08:28:03;;;;;;;38.55;14.65;;;18.90;99.90;;;;;;5055928;28;20048;-77
2023/08/18 08:30:29;;;;;;;41.17;14.45;;;18.80;99.90;;;;;;5055701;28;20047;-75
2023/08/18 08:32:55;;;;;;;35.13;13.03;;;18.90;99.90;;;;;;5054418;28;20048;-78
2023/08/18 08:35:21;;;;;;;37.47;13.17;;;19.00;99.90;;;;;;5055271;28;20049;-77
2023/08/18 08:37:47;;;;;;;40.50;13.82;;;19.10;99.90;;;;;;5056620;28;20053;-78
2023/08/18 08:40:18;;;;;;;35.03;12.93;;;19.40;99.90;;;;;;5059079;28;20045;-78
2023/08/18 08:42:45;;;;;;;42.95;14.13;;;19.50;99.90;;;;;;5055736;28;20053;-77
2023/08/18 08:45:11;;;;;;;37.78;13.75;;;19.70;99.90;;;;;;5054245;28;20049;-75
2023/08/18 08:47:39;;;;;;;45.15;13.90;;;19.70;99.90;;;;;;5053783;28;20049;-76
2023/08/18 08:50:06;;;;;;;42.58;13.15;;;20.00;99.90;;;;;;5055405;28;20060;-77
2023/08/18 08:52:37;;;;;;;44.40;14.63;;;20.30;99.90;;;;;;5054478;28;20432;-77
2023/08/18 08:55:04;;;;;;;39.08;13.88;;;20.30;99.90;;;;;;5055556;28;20045;-76
2023/08/18 08:57:29;;;;;;;39.20;14.05;;;20.50;99.90;;;;;;5054353;28;20041;-77
2023/08/18 08:59:56;;;;;;;43.97;14.37;;;20.60;99.90;;;;;;5055228;28;20083;-78
2023/08/18 09:02:22;;;;;;;36.17;13.88;;;20.60;99.90;;;;;;5055038;28;20059;-75
2023/08/18 09:04:48;;;;;;;37.37;13.40;;;20.80;99.90;;;;;;5054602;28;20120;-75
2023/08/18 09:07:14;;;;;;;40.83;14.70;;;20.90;99.90;;;;;;5055772;28;20045;-75
2023/08/18 09:09:43;;;;;;;34.70;13.40;;;20.90;99.90;;;;;;5055738;28;20128;-77
2023/08/18 09:12:10;;;;;;;40.85;12.82;;;21.00;99.90;;;;;;5056339;28;20111;-77
2023/08/18 09:14:40;;;;;;;38.90;14.23;;;21.10;99.90;;;;;;5056753;28;20396;-74
2023/08/18 09:17:07;;;;;;;49.20;16.05;;;21.10;99.90;;;;;;5090548;28;20041;-70
2023/08/18 09:19:33;;;;;;;38.38;14.35;;;21.00;99.90;;;;;;5058749;28;20106;-76
2023/08/18 09:22:01;;;;;;;46.75;16.42;;;20.90;99.90;;;;;;5058400;28;20446;-75
2023/08/18 09:24:30;;;;;;;46.60;16.40;;;20.90;99.90;;;;;;5058107;28;20057;-77
2023/08/18 09:27:09;;;;;;;48.78;17.80;;;20.80;99.90;;;;;;5056274;28;20048;-76
2023/08/18 09:29:36;;;;;;;51.22;17.38;;;20.80;99.90;;;;;;5055464;28;20403;-76
2023/08/18 09:32:02;;;;;;;55.67;17.80;;;20.80;99.90;;;;;;5054068;28;20049;-77
2023/08/18 09:34:30;;;;;;;56.60;18.25;;;20.70;99.90;;;;;;5054473;28;20045;-76
2023/08/18 09:36:56;;;;;;;54.65;17.77;;;20.70;99.90;;;;;;5070408;28;20132;-74
2023/08/18 09:39:25;;;;;;;51.88;18.15;;;20.70;99.90;;;;;;5054493;28;20405;-77
2023/08/18 09:41:52;;;;;;;53.42;19.52;;;20.60;99.90;;;;;;5054490;28;20401;-76
2023/08/18 09:44:18;;;;;;;;;;;20.70;99.90;;;;;;5054553;28;20052;-76
2023/08/18 09:47:05;;;;;;;49.22;17.70;;;20.70;99.90;;;;;;5053988;28;19986;-75
2023/08/18 09:49:35;;;;;;;49.90;18.15;;;20.80;99.90;;;;;;5054939;28;20057;-76
2023/08/18 09:52:06;;;;;;;51.97;17.75;;;20.90;99.90;;;;;;5054510;28;20037;-75
2023/08/18 09:54:39;;;;;;;53.20;18.77;;;21.00;99.90;;;;;;5053073;28;20053;-76
2023/08/18 09:57:11;;;;;;;48.08;18.70;;;21.20;99.90;;;;;;5054260;28;20041;-77
2023/08/18 09:59:43;;;;;;;56.83;20.05;;;21.20;99.90;;;;;;5053982;28;20120;-72
2023/08/18 10:02:18;;;;;;;54.70;19.20;;;21.30;99.90;;;;;;5052840;28;20534;-75
2023/08/18 10:04:44;;;;;;;51.05;18.98;;;21.40;99.90;;;;;;5054727;28;20075;-76
2023/08/18 10:07:12;;;;;;;51.60;18.97;;;21.50;99.90;;;;;;5053867;28;20484;-75
2023/08/18 10:09:41;;;;;;;52.63;20.17;;;21.60;99.90;;;;;;5053433;28;20283;-76
2023/08/18 10:12:06;;;;;;;54.53;20.08;;;21.70;99.90;;;;;;5053764;28;20041;-76
2023/08/18 10:14:33;;;;;;;52.97;19.90;;;21.80;99.90;;;;;;5054436;28;20037;-73
2023/08/18 10:17:00;;;;;;;56.03;21.30;;;21.90;99.90;;;;;;5052614;28;20455;-76
2023/08/18 10:19:46;;;;;;;49.47;21.05;;;21.90;99.90;;;;;;5053526;28;20045;-75
2023/08/18 10:22:12;;;;;;;60.53;21.08;;;21.90;99.90;;;;;;5053388;28;20105;-74
2023/08/18 10:24:38;;;;;;;54.90;21.70;;;22.00;99.90;;;;;;5053529;28;20535;-75
2023/08/18 10:27:07;;;;;;;52.28;21.63;;;22.10;99.90;;;;;;5053564;28;20053;-75
2023/08/18 10:29:34;;;;;;;49.10;21.23;;;22.10;99.90;;;;;;5053433;28;20545;-76
2023/08/18 10:32:08;;;;;;;56.30;21.38;;;22.20;99.90;;;;;;5053680;28;20493;-74
2023/08/18 10:34:35;;;;;;;51.95;21.98;;;22.20;99.90;;;;;;5053409;28;20221;-74
2023/08/18 10:37:03;;;;;;;46.13;20.95;;;22.20;99.90;;;;;;5053417;28;20386;-76
2023/08/18 10:39:36;;;;;;;49.47;21.23;;;22.30;99.90;;;;;;5054158;28;20045;-74
2023/08/18 10:42:15;;;;;;;47.13;20.77;;;22.40;99.90;;;;;;5052351;28;20045;-75
2023/08/18 10:45:21;;;;;;;50.97;21.50;;;22.50;99.90;;;;;;5053941;28;20384;-76
2023/08/18 10:47:47;;;;;;;47.95;21.42;;;22.60;99.90;;;;;;5052126;28;20049;-75
2023/08/18 10:50:14;;;;;;;50.83;21.20;;;22.70;99.90;;;;;;5053208;28;20396;-76
2023/08/18 10:52:41;;;;;;;48.00;21.38;;;22.80;99.90;;;;;;5052894;28;20049;-76
2023/08/18 10:55:07;;;;;;;49.80;21.88;;;22.80;99.90;;;;;;5053732;28;20056;-76
2023/08/18 10:57:33;;;;;;;47.70;20.92;;;22.80;99.90;;;;;;5052103;28;20122;-76
2023/08/18 11:00:00;;;;;;;47.65;20.48;;;22.90;99.90;;;;;;5053312;28;20048;-75
2023/08/18 11:02:26;;;;;;;54.38;23.95;;;23.10;99.90;;;;;;5053095;28;20059;-75
2023/08/18 11:04:52;;;;;;;52.40;24.25;;;23.20;99.90;;;;;;5053277;28;20063;-75
2023/08/18 11:07:21;;;;;;;47.90;22.90;;;23.20;99.90;;;;;;5053185;28;20049;-76
2023/08/18 11:09:46;;;;;;;45.47;20.92;;;23.30;99.90;;;;;;5087658;28;20106;-76
2023/08/18 11:12:15;;;;;;;58.13;25.53;;;23.40;99.90;;;;;;5090647;28;20469;-76
2023/08/18 11:14:40;;;;;;;61.78;26.25;;;23.50;99.90;;;;;;5057056;28;20076;-74
2023/08/18 11:17:06;;;;;;;61.93;29.30;;;23.70;99.90;;;;;;5055945;28;20045;-74
2023/08/18 11:19:32;;;;;;;62.60;27.10;;;23.70;99.90;;;;;;5056933;28;20047;-73
2023/08/18 11:21:57;;;;;;;53.90;24.17;;;23.70;99.90;;;;;;5022828;28;20075;-76
2023/08/18 11:24:25;;;;;;;53.83;24.40;;;23.70;99.90;;;;;;5057037;28;20405;-74
2023/08/18 11:26:51;;;;;;;54.85;23.77;;;23.30;99.90;;;;;;5055991;28;20378;-76
2023/08/18 11:29:17;;;;;;;53.77;24.30;;;23.50;99.90;;;;;;5056678;28;20175;-76
2023/08/18 11:31:45;;;;;;;54.40;24.80;;;23.90;99.90;;;;;;5022640;28;20072;-75
2023/08/18 11:34:12;;;;;;;60.22;24.92;;;23.80;99.90;;;;;;5057351;28;20095;-76
2023/08/18 11:36:39;;;;;;;58.75;25.33;;;23.90;99.90;;;;;;5056520;28;20052;-76
2023/08/18 11:39:08;;;;;;;64.05;27.70;;;24.10;99.90;;;;;;5056901;28;20049;-77
2023/08/18 11:41:40;;;;;;;61.85;28.50;;;24.20;99.90;;;;;;5055825;28;20063;-76
2023/08/18 11:44:07;;;;;;;69.15;30.60;;;24.10;99.90;;;;;;5057111;28;20048;-74
2023/08/18 11:46:36;;;;;;;74.53;30.45;;;24.00;99.90;;;;;;5040129;28;20483;-74
2023/08/18 11:49:12;;;;;;;71.55;30.63;;;23.90;99.90;;;;;;5057378;28;20103;-74
2023/08/18 11:51:53;;;;;;;67.28;29.50;;;23.90;99.90;;;;;;5042044;28;20064;-75
2023/08/18 11:54:19;;;;;;;71.57;29.17;;;23.80;99.90;;;;;;5057527;28;20123;-76
2023/08/18 11:56:44;;;;;;;69.57;31.27;;;24.00;99.90;;;;;;5060631;28;20096;-75
2023/08/18 11:59:18;;;;;;;67.63;31.77;;;24.20;99.90;;;;;;5060784;28;20052;-75
2023/08/18 12:01:44;;;;;;;66.97;30.98;;;24.50;99.90;;;;;;5092668;28;20059;-74
2023/08/18 12:04:11;;;;;;;65.47;31.20;;;24.70;99.90;;;;;;5059490;28;20041;-75
2023/08/18 12:06:37;;;;;;;69.70;30.65;;;24.80;99.90;;;;;;5041704;28;20045;-76
2023/08/18 12:09:06;;;;;;;70.83;31.70;;;24.90;99.90;;;;;;5060843;28;20049;-76
2023/08/18 12:11:36;;;;;;;73.07;31.75;;;24.80;99.90;;;;;;5091339;28;20115;-75
2023/08/18 12:14:03;;;;;;;69.68;30.70;;;24.80;99.90;;;;;;5055240;28;20061;-76
2023/08/18 12:16:29;;;;;;;74.75;32.70;;;24.90;99.90;;;;;;5055972;28;20044;-75
2023/08/18 12:18:55;;;;;;;69.22;33.22;;;24.80;99.90;;;;;;5056660;28;20048;-75
2023/08/18 12:21:21;;;;;;;69.93;31.93;;;24.80;99.90;;;;;;5053464;28;20098;-71
2023/08/18 12:23:46;;;;;;;73.77;32.07;;;24.80;99.90;;;;;;5054478;28;20343;-73
2023/08/18 12:26:14;;;;;;;75.97;32.73;;;24.80;99.90;;;;;;5088562;28;20144;-76
2023/08/18 12:28:40;;;;;;;66.95;32.35;;;24.60;99.90;;;;;;5055919;28;20040;-75
2023/08/18 12:31:06;;;;;;;77.63;35.00;;;24.60;99.90;;;;;;5071355;28;20140;-76
2023/08/18 12:33:32;;;;;;;71.15;34.08;;;24.60;99.90;;;;;;5054450;28;20080;-74